Weather observations for the past three days for
Menominee - Marinette Twin County Airport
| Date | Time (cdt) | Wind (mph) | Vis. (mi.) | Weather | Sky Cond. | Temperature (ºF) | Relative Humidity | Wind Chill (°F) | Heat Index (°F) | Pressure | Precipitation (in) | ||||||
|---|---|---|---|---|---|---|---|---|---|---|---|---|---|---|---|---|---|
| Air | Dwpt | 6 hour | altimeter (in) | sea level (mb) | 1 hr | 3 hr | 6 hr | ||||||||||
| Max. | Min. | ||||||||||||||||
| 08 | 18:57 | SW 3 | 10.00 | Overcast | OVC110 | 63 | 27 | 64 | 62.1 | 26% | 29.61 | 1002.7 | |||||
| 08 | 17:57 | SW 6 | 10.00 | Overcast | OVC100 | 63 | 26.1 | 25% | 29.62 | 1003.2 | |||||||
| 08 | 16:57 | Vrbl 6 G 17 | 10.00 | Overcast | OVC100 | 64 | 27 | 25% | 29.63 | 1003.5 | |||||||
| 08 | 15:57 | NW 10 G 20 | 10.00 | Mostly Cloudy | SCT090 BKN110 | 64 | 26.1 | 24% | 29.64 | 1003.7 | |||||||
| 08 | 14:57 | W 9 G 18 | 10.00 | Overcast | OVC095 | 62.1 | 25 | 24% | 29.65 | 1004.3 | |||||||
| 08 | 13:57 | SW 12 G 16 | 10.00 | Overcast | OVC100 | 62.1 | 25 | 24% | 29.68 | 1005.2 | |||||||
| 08 | 12:57 | W 8 G 17 | 10.00 | Mostly Cloudy | BKN095 | 62.1 | 26.1 | 63 | 42.1 | 25% | 29.7 | 1005.9 | |||||
| 08 | 11:57 | SW 9 G 18 | 10.00 | Fair | CLR | 60.1 | 26.1 | 27% | 29.73 | 1006.6 | |||||||
| 08 | 10:57 | Vrbl 6 | 10.00 | Fair | CLR | 57 | 26.1 | 30% | 29.75 | 1007.6 | |||||||
| 08 | 09:57 | Vrbl 7 G 17 | 10.00 | Fair | CLR | 55 | 26.1 | 33% | 29.77 | 1008.2 | |||||||
| 08 | 08:57 | W 9 G 16 | 10.00 | Fair | CLR | 50 | 27 | 41% | 47 | 29.79 | 1008.9 | ||||||
| 08 | 07:57 | Vrbl 3 | 10.00 | Fair | CLR | 46 | 28 | 50% | 29.8 | 1009.3 | |||||||
| 08 | 06:57 | W 7 | 10.00 | Fair | CLR | 42.1 | 28 | 42.1 | 36 | 58% | 38 | 29.79 | 1009.1 | ||||
| 08 | 05:57 | W 6 | 10.00 | Fair | CLR | 39 | 28.9 | 67% | 35 | 29.79 | 1009.0 | ||||||
| 08 | 04:57 | SW 6 | 10.00 | Mostly Cloudy | BKN095 | 39.9 | 30.9 | 70% | 36 | 29.79 | 1009.0 | ||||||
| 08 | 03:57 | SW 5 | 10.00 | Overcast | OVC090 | 41 | 32 | 70% | 38 | 29.8 | 1009.4 | ||||||
| 08 | 02:57 | SW 6 | 10.00 | Overcast | OVC095 | 41 | 32 | 70% | 38 | 29.81 | 1009.7 | ||||||
| 08 | 01:57 | Calm | 10.00 | Overcast | OVC095 | 37 | 36 | 96% | 29.82 | 1010.3 | |||||||
| 08 | 00:57 | N 3 | 10.00 | Overcast | OVC080 | 39.9 | 36 | 48 | 37.9 | 86% | 29.84 | 1010.9 | |||||
| 07 | 23:57 | SW 5 | 10.00 | Overcast | BKN090 OVC100 | 37.9 | 35.1 | 89% | 35 | 29.85 | 1011.0 | ||||||
| 07 | 22:57 | Calm | 10.00 | Overcast | BKN095 OVC110 | 41 | 36 | 82% | 29.85 | 1011.2 | |||||||
| 07 | 21:57 | SW 3 | 10.00 | Mostly Cloudy | BKN080 BKN110 | 39.9 | 35.1 | 83% | 29.85 | 1011.1 | |||||||
| 07 | 20:57 | S 5 | 10.00 | Fair | CLR | 42.1 | 34 | 73% | 40 | 29.84 | 1010.9 | ||||||
| 07 | 19:57 | S 9 | 10.00 | A Few Clouds | FEW100 | 45 | 34 | 66% | 41 | 29.82 | 1010.3 | ||||||
| 07 | 18:57 | S 8 | 10.00 | Overcast | SCT080 OVC095 | 46.9 | 32 | 51.1 | 46.9 | 56% | 44 | 29.82 | 1010.2 | ||||
| 07 | 17:57 | Vrbl 5 | 10.00 | Overcast | SCT075 OVC090 | 50 | 21.9 | 33% | 49 | 29.82 | 1010.2 | ||||||
| 07 | 16:57 | NW 7 | 10.00 | Overcast | BKN075 OVC090 | 48.9 | 21.9 | 35% | 46 | 29.82 | 1010.4 | ||||||
| 07 | 15:57 | Vrbl 6 | 10.00 | Overcast | OVC090 | 50 | 24.1 | 36% | 48 | 29.83 | 1010.5 | ||||||
| 07 | 14:57 | Vrbl 7 | 10.00 | Overcast | BKN060 BKN075 OVC085 | 48.9 | 24.1 | 38% | 46 | 29.85 | 1011.0 | ||||||
| 07 | 13:57 | W 8 | 10.00 | Overcast | BKN075 OVC090 | 48 | 25 | 41% | 45 | 29.85 | 1011.3 | ||||||
| 07 | 12:57 | W 7 | 10.00 | Overcast | FEW055 OVC080 | 46.9 | 25 | 46.9 | 37 | 42% | 44 | 29.86 | 1011.6 | ||||
| 07 | 11:57 | W 8 | 10.00 | Overcast | FEW050 OVC080 | 46.9 | 25 | 42% | 44 | 29.88 | 1012.2 | ||||||
| 07 | 10:57 | SW 12 | 10.00 | Overcast | BKN050 BKN070 OVC085 | 46.9 | 26.1 | 44% | 42 | 29.89 | 1012.6 | ||||||
| 07 | 09:57 | W 7 | 10.00 | Overcast | OVC080 | 45 | 26.1 | 48% | 42 | 29.91 | 1013.1 | ||||||
| 07 | 08:57 | Vrbl 5 | 10.00 | Overcast | OVC070 | 42.1 | 28 | 58% | 40 | 29.92 | 1013.6 | ||||||
| 07 | 07:57 | Vrbl 3 | 10.00 | Overcast | OVC070 | 39.9 | 28 | 63% | 29.92 | 1013.6 | |||||||
| 07 | 06:57 | W 3 | 10.00 | Overcast | OVC070 | 37 | 28 | 39.9 | 33.1 | 70% | 29.91 | 1013.3 | |||||
| 07 | 05:57 | W 3 | 10.00 | Overcast | OVC070 | 36 | 27 | 70% | 29.9 | 1012.9 | |||||||
| 07 | 04:57 | Vrbl 3 | 10.00 | A Few Clouds | FEW075 | 35.1 | 26.1 | 70% | 29.9 | 1012.9 | |||||||
| 07 | 03:57 | W 3 | 10.00 | Fair | CLR | 34 | 28 | 79% | 29.9 | 1013.1 | |||||||
| 07 | 02:57 | Calm | 10.00 | Overcast | OVC075 | 37 | 28 | 70% | 29.91 | 1013.0 | |||||||
| 07 | 01:57 | Calm | 10.00 | Overcast | OVC080 | 37.9 | 26.1 | 62% | 29.92 | 1013.7 | |||||||
| 07 | 00:57 | Calm | 10.00 | Overcast | OVC080 | 39.9 | 27 | 44.1 | 39 | 60% | 29.94 | 1014.2 | |||||
| 06 | 23:57 | Calm | 10.00 | Overcast | OVC070 | 39.9 | 30 | 68% | 29.94 | 1014.3 | |||||||
| 06 | 22:57 | Calm | 10.00 | Overcast | OVC065 | 41 | 30.9 | 67% | 29.94 | 1014.3 | |||||||
| 06 | 21:57 | NW 3 | 10.00 | Overcast | OVC060 | 42.1 | 30 | 62% | 29.95 | 1014.7 | |||||||
| 06 | 20:57 | S 5 | 10.00 | Overcast | OVC065 | 42.1 | 28.9 | 60% | 40 | 29.94 | 1014.3 | ||||||
| 06 | 19:57 | SE 7 | 10.00 | Overcast | OVC070 | 43 | 28.9 | 58% | 39 | 29.92 | 1013.7 | ||||||
| 06 | 18:57 | SE 6 | 10.00 | Overcast | BKN070 OVC085 | 44.1 | 30.9 | 48 | 44.1 | 60% | 41 | 29.91 | 1013.2 | ||||
| 06 | 17:57 | E 10 | 10.00 | Overcast | OVC070 | 45 | 30.9 | 58% | 40 | 29.9 | 1013.1 | ||||||
| 06 | 16:57 | E 9 | 10.00 | Overcast | OVC065 | 46 | 28.9 | 51% | 42 | 29.9 | 1012.8 | ||||||
| 06 | 15:57 | NW 10 | 10.00 | Overcast | OVC065 | 46.9 | 23 | 39% | 43 | 29.89 | 1012.5 | ||||||
| 06 | 14:57 | NW 7 | 10.00 | Overcast | OVC060 | 48 | 23 | 37% | 45 | 29.9 | 1012.7 | ||||||
| 06 | 13:57 | Vrbl 5 | 10.00 | Overcast | OVC055 | 46 | 24.1 | 42% | 44 | 29.9 | 1012.9 | ||||||
| 06 | 12:57 | W 8 | 10.00 | Overcast | OVC055 | 46 | 25 | 46.9 | 37.9 | 44% | 42 | 29.91 | 1013.3 | ||||
| 06 | 11:57 | Vrbl 5 | 10.00 | Overcast | OVC055 | 45 | 24.1 | 44% | 43 | 29.93 | 1013.8 | ||||||
| 06 | 10:57 | W 6 | 10.00 | Mostly Cloudy | BKN065 | 45 | 24.1 | 44% | 42 | 29.93 | 1014.0 | ||||||
| 06 | 09:57 | W 6 | 10.00 | Overcast | OVC060 | 42.1 | 24.1 | 49% | 39 | 29.93 | 1014.0 | ||||||
| 06 | 08:57 | NW 6 | 10.00 | Overcast | BKN055 OVC070 | 41 | 24.1 | 51% | 38 | 29.93 | 1013.7 | ||||||
| 06 | 07:57 | N 6 | 10.00 | Overcast | OVC065 | 39 | 27 | 62% | 35 | 29.93 | 1013.7 | ||||||
| 06 | 06:57 | NW 3 | 10.00 | Mostly Cloudy | BKN070 | 37.9 | 32 | 37.9 | 35.1 | 79% | 29.91 | 1013.3 | |||||
| 06 | 05:57 | Calm | 10.00 | Overcast | OVC070 | 37 | 32 | 82% | 29.89 | 1012.4 | |||||||
| 06 | 04:57 | S 5 | 10.00 | Overcast | OVC070 | 37.9 | 30.9 | 76% | 35 | 29.87 | 1011.9 | ||||||
| 06 | 03:57 | S 3 | 10.00 | Overcast | OVC065 | 37.9 | 32 | 79% | 29.88 | 1012.2 | |||||||
| 06 | 02:57 | Calm | 10.00 | Overcast | OVC065 | 37 | 32 | 82% | 29.88 | 1012.0 | |||||||
| 06 | 01:57 | Calm | 10.00 | Overcast | BKN070 OVC080 | 36 | 32 | 86% | 29.88 | 1012.0 | |||||||
| 06 | 00:57 | Calm | 10.00 | A Few Clouds | FEW070 | 36 | 30.9 | 48.9 | 35.1 | 82% | 29.88 | 1012.2 | |||||
| 05 | 23:57 | E 7 | 10.00 | Mostly Cloudy | BKN070 | 39 | 32 | 76% | 35 | 29.87 | 1011.8 | ||||||
| 05 | 22:57 | Calm | 10.00 | Fair | CLR | 37 | 25 | 62% | 29.85 | 1011.1 | |||||||
| 05 | 21:57 | Calm | 10.00 | A Few Clouds | FEW075 | 43 | 21 | 42% | 29.85 | 1010.9 | |||||||
| 05 | 20:57 | N 9 | 10.00 | Overcast | OVC070 | 46 | 19.9 | 35% | 42 | 29.83 | 1010.2 | ||||||
| 05 | 19:57 | N 9 | 10.00 | Overcast | OVC070 | 46.9 | 21 | 36% | 43 | 29.81 | 1009.4 | ||||||
| Date | Time (cdt) | Wind (mph) | Vis. (mi.) | Weather | Sky Cond. | Air | Dwpt | Max. | Min. | Relative Humidity | Wind Chill (°F) | Heat Index (°F) | altimeter (in) | sea level (mb) | 1 hr | 3 hr | 6 hr |
| 6 hour | |||||||||||||||||
| Temperature (ºF) | Pressure | Precipitation (in) | |||||||||||||||